^^
Station Historical Data
Daily Summary for April 16, 2018 Units:  Metric    English   Both
« Previous Day
Next Day »
Daily Weekly Monthly Yearly Custom
  High: Low: Average:
Temperature: 5.6 °C -7 °C -0.6 °C
Dew Point: -3.1 °C -9.7 °C -6.4 °C
Humidity: 88% 43% 67%
Wind Speed: 38.6km/h 1.6km/h 17.9km/h
Wind Gust: 48.3km/h - -
Wind- - ESE
Pressure: 1024.9 hPa 1015.5 hPa -
Precipitation: 0 mm    
Historical Graphs
 
 
Tabular Data for April 16, 2018
Time Temperature Dew Point Pressure Wind Wind Speed Wind Gust Humidity Rainfall Rate (Hourly) solar Conditions
00:00 -3.9 °C -7.6 °C 1024.6 hPa East 9.7 km/h 16.1 km/h 76% 0 mm 0 W/m2
00:05 -4 °C -7.4 °C 1024.9 hPa East 9.7 km/h 14.5 km/h 77% 0 mm 0 W/m2
00:10 -4 °C -7.4 °C 1024.9 hPa East 9.7 km/h 12.9 km/h 77% 0 mm 0 W/m2
00:15 -4 °C -7.4 °C 1024.9 hPa East 11.3 km/h 12.9 km/h 77% 0 mm 0 W/m2
00:20 -4.1 °C -7.5 °C 1024.6 hPa East 11.3 km/h 12.9 km/h 77% 0 mm 0 W/m2
00:25 -4.2 °C -7.6 °C 1024.9 hPa East 9.7 km/h 12.9 km/h 77% 0 mm 0 W/m2
00:30 -4.2 °C -7.5 °C 1024.9 hPa East 12.9 km/h 14.5 km/h 78% 0 mm 0 W/m2
00:35 -4.3 °C -7.6 °C 1024.9 hPa East 12.9 km/h 14.5 km/h 78% 0 mm 0 W/m2
00:40 -4.3 °C -7.6 °C 1024.9 hPa East 11.3 km/h 14.5 km/h 78% 0 mm 0 W/m2
00:46 -4.4 °C -7.5 °C 1024.9 hPa East 9.7 km/h 12.9 km/h 79% 0 mm 0 W/m2
00:51 -4.4 °C -7.5 °C 1024.9 hPa East 9.7 km/h 12.9 km/h 79% 0 mm 0 W/m2
00:56 -4.4 °C -7.6 °C 1024.9 hPa East 9.7 km/h 12.9 km/h 79% 0 mm 0 W/m2
01:01 -4.5 °C -7.4 °C 1024.6 hPa East 9.7 km/h 12.9 km/h 80% 0 mm 0 W/m2
01:06 -4.6 °C -7.6 °C 1024.6 hPa East 11.3 km/h 12.9 km/h 80% 0 mm 0 W/m2
01:11 -4.7 °C -7.6 °C 1024.6 hPa East 12.9 km/h 14.5 km/h 80% 0 mm 0 W/m2
01:16 -4.8 °C -7.7 °C 1024.6 hPa East 12.9 km/h 16.1 km/h 80% 0 mm 0 W/m2
01:21 -4.8 °C -7.6 °C 1024.6 hPa ESE 14.5 km/h 16.1 km/h 81% 0 mm 0 W/m2
01:26 -4.8 °C -7.6 °C 1024.6 hPa East 11.3 km/h 16.1 km/h 81% 0 mm 0 W/m2
01:31 -4.9 °C -7.7 °C 1024.3 hPa East 14.5 km/h 16.1 km/h 81% 0 mm 0 W/m2
01:36 -5.1 °C -7.8 °C 1024.3 hPa East 16.1 km/h 20.9 km/h 81% 0 mm 0 W/m2
01:41 -5.1 °C -7.7 °C 1024.3 hPa East 14.5 km/h 20.9 km/h 82% 0 mm 0 W/m2
01:46 -5.2 °C -7.8 °C 1023.9 hPa East 17.7 km/h 22.5 km/h 82% 0 mm 0 W/m2
01:51 -5.2 °C -7.6 °C 1023.9 hPa East 20.9 km/h 24.1 km/h 83% 0 mm 0 W/m2
01:56 -5.1 °C -7.7 °C 1023.6 hPa East 14.5 km/h 25.7 km/h 82% 0 mm 0 W/m2
02:01 -4.9 °C -7.6 °C 1023.6 hPa East 16.1 km/h 25.7 km/h 82% 0 mm 0 W/m2
02:06 -4.8 °C -7.6 °C 1023.6 hPa ENE 20.9 km/h 25.7 km/h 81% 0 mm 0 W/m2
02:11 -4.6 °C -7.6 °C 1023.6 hPa ENE 16.1 km/h 25.7 km/h 80% 0 mm 0 W/m2
02:16 -4.4 °C -7.7 °C 1023.2 hPa East 14.5 km/h 24.1 km/h 78% 0 mm 0 W/m2
02:21 -4.4 °C -7.8 °C 1023.6 hPa ESE 17.7 km/h 24.1 km/h 77% 0 mm 0 W/m2
02:26 -4.3 °C -7.8 °C 1023.6 hPa ESE 12.9 km/h 22.5 km/h 77% 0 mm 0 W/m2
02:31 -4.3 °C -7.9 °C 1023.9 hPa ESE 11.3 km/h 22.5 km/h 76% 0 mm 0 W/m2
02:36 -4.4 °C -8 °C 1023.9 hPa ESE 8 km/h 17.7 km/h 76% 0 mm 0 W/m2
02:41 -4.5 °C -8.1 °C 1023.9 hPa ESE 11.3 km/h 17.7 km/h 76% 0 mm 0 W/m2
02:46 -4.7 °C -8.1 °C 1023.9 hPa SE 4.8 km/h 16.1 km/h 77% 0 mm 0 W/m2
02:51 -4.9 °C -8.3 °C 1023.9 hPa SW 6.4 km/h 12.9 km/h 77% 0 mm 0 W/m2
02:56 -5.7 °C -9.3 °C 1024.3 hPa SW 6.4 km/h 11.3 km/h 76% 0 mm 0 W/m2
03:01 -6.2 °C -9.4 °C 1024.3 hPa SSW 4.8 km/h 11.3 km/h 78% 0 mm 0 W/m2
03:06 -6.3 °C -9.2 °C 1024.3 hPa South 3.2 km/h 8 km/h 80% 0 mm 0 W/m2
03:11 -6.3 °C -9 °C 1024.3 hPa SSE 4.8 km/h 6.4 km/h 81% 0 mm 0 W/m2
03:16 -6.2 °C -8.9 °C 1024.3 hPa South 3.2 km/h 4.8 km/h 81% 0 mm 0 W/m2
03:21 -6.2 °C -8.9 °C 1024.3 hPa SE 6.4 km/h 8 km/h 81% 0 mm 0 W/m2
03:26 -6.2 °C -8.9 °C 1024.3 hPa SSE 1.6 km/h 8 km/h 81% 0 mm 0 W/m2
03:31 -6.2 °C -8.9 °C 1023.9 hPa SE 3.2 km/h 8 km/h 81% 0 mm 0 W/m2
03:36 -6.1 °C -8.8 °C 1023.9 hPa SE 4.8 km/h 4.8 km/h 81% 0 mm 0 W/m2
03:41 -6.1 °C -8.8 °C 1024.3 hPa SE 3.2 km/h 4.8 km/h 81% 0 mm 0 W/m2
03:46 -6.1 °C -8.8 °C 1023.9 hPa SE 3.2 km/h 4.8 km/h 81% 0 mm 0 W/m2
03:51 -6 °C -8.9 °C 1023.9 hPa East 4.8 km/h 8 km/h 80% 0 mm 0 W/m2
03:56 -6.1 °C -8.9 °C 1023.9 hPa East 8 km/h 9.7 km/h 80% 0 mm 0 W/m2
04:01 -6.1 °C -8.9 °C 1023.9 hPa East 4.8 km/h 9.7 km/h 80% 0 mm 0 W/m2
04:06 -6.1 °C -9 °C 1023.9 hPa ESE 4.8 km/h 9.7 km/h 80% 0 mm 0 W/m2
04:11 -6.2 °C -9.1 °C 1023.9 hPa ESE 8 km/h 9.7 km/h 80% 0 mm 0 W/m2
04:16 -6.3 °C -9 °C 1023.9 hPa East 8 km/h 11.3 km/h 81% 0 mm 0 W/m2
04:21 -6.3 °C -9 °C 1023.9 hPa East 8 km/h 11.3 km/h 81% 0 mm 0 W/m2
04:26 -6.4 °C -9.1 °C 1023.9 hPa ESE 4.8 km/h 9.7 km/h 81% 0 mm 0 W/m2
04:31 -6.4 °C -8.1 °C 1023.9 hPa East 9.7 km/h 9.7 km/h 88% 0 mm 0 W/m2
04:36 -6.5 °C -9.2 °C 1023.9 hPa East 9.7 km/h 11.3 km/h 81% 0 mm 0 W/m2
04:41 -6.5 °C -9.2 °C 1023.6 hPa East 9.7 km/h 11.3 km/h 81% 0 mm 0 W/m2
04:46 -6.6 °C -9.3 °C 1023.9 hPa East 9.7 km/h 12.9 km/h 81% 0 mm 0 W/m2
04:51 -6.6 °C -9.3 °C 1023.6 hPa East 12.9 km/h 14.5 km/h 81% 0 mm 0 W/m2
04:56 -6.6 °C -9.3 °C 1023.6 hPa East 12.9 km/h 14.5 km/h 81% 0 mm 0 W/m2
05:01 -6.6 °C -9.3 °C 1023.6 hPa East 11.3 km/h 14.5 km/h 81% 0 mm 0 W/m2
05:06 -6.6 °C -9.3 °C 1023.6 hPa East 9.7 km/h 12.9 km/h 81% 0 mm 0 W/m2
05:11 -6.7 °C -9.4 °C 1023.6 hPa East 9.7 km/h 12.9 km/h 81% 0 mm 0 W/m2
05:16 -6.6 °C -9.3 °C 1023.6 hPa East 9.7 km/h 12.9 km/h 81% 0 mm 0 W/m2
05:21 -6.6 °C -9.3 °C 1023.6 hPa ESE 11.3 km/h 11.3 km/h 81% 0 mm 0 W/m2
05:26 -6.6 °C -9.3 °C 1023.6 hPa East 8 km/h 11.3 km/h 81% 0 mm 0 W/m2
05:31 -6.7 °C -9.4 °C 1023.2 hPa East 8 km/h 9.7 km/h 81% 0 mm 0 W/m2
05:36 -6.7 °C -9.4 °C 1023.2 hPa East 8 km/h 9.7 km/h 81% 0 mm 0 W/m2
05:41 -6.7 °C -9.4 °C 1023.2 hPa East 9.7 km/h 9.7 km/h 81% 0 mm 0 W/m2
05:46 -6.6 °C -9.3 °C 1023.2 hPa East 9.7 km/h 11.3 km/h 81% 0 mm 0 W/m2
05:51 -6.5 °C -9.4 °C 1023.2 hPa East 4.8 km/h 11.3 km/h 80% 0 mm 0 W/m2
05:56 -6.6 °C -9.4 °C 1023.2 hPa East 8 km/h 9.7 km/h 80% 0 mm 0 W/m2
06:01 -6.7 °C -9.6 °C 1023.2 hPa East 9.7 km/h 9.7 km/h 80% 0 mm 0 W/m2
06:06 -6.7 °C -9.6 °C 1023.2 hPa East 9.7 km/h 11.3 km/h 80% 0 mm 0 W/m2
06:11 -6.8 °C -9.7 °C 1023.2 hPa East 8 km/h 11.3 km/h 80% 0 mm 0 W/m2
06:16 -6.9 °C -9.6 °C 1023.2 hPa East 4.8 km/h 9.7 km/h 81% 0 mm 0 W/m2
06:21 -7 °C -9.7 °C 1023.2 hPa East 8 km/h 9.7 km/h 81% 0 mm 0 W/m2
06:26 -7 °C -9.7 °C 1023.2 hPa East 8 km/h 8 km/h 81% 0 mm 0 W/m2
06:31 -7 °C -9.7 °C 1023.2 hPa East 8 km/h 8 km/h 81% 0 mm 0 W/m2
06:36 -6.9 °C -9.5 °C 1023.2 hPa East 8 km/h 8 km/h 82% 0 mm 0 W/m2
06:41 -6.9 °C -9.4 °C 1022.9 hPa East 9.7 km/h 9.7 km/h 82% 0 mm 0 W/m2
06:46 -6.9 °C -9.7 °C 1022.9 hPa East 11.3 km/h 11.3 km/h 81% 0 mm 0 W/m2
06:51 -6.9 °C -9.4 °C 1022.9 hPa East 8 km/h 11.3 km/h 82% 0 mm 5 W/m2
06:56 -6.8 °C -9.4 °C 1022.9 hPa East 8 km/h 11.3 km/h 82% 0 mm 7 W/m2
07:01 -6.8 °C -9.5 °C 1022.9 hPa ENE 6.4 km/h 11.3 km/h 81% 0 mm 11 W/m2
07:06 -6.8 °C -9.6 °C 1022.9 hPa East 8 km/h 11.3 km/h 81% 0 mm 12 W/m2
07:11 -6.8 °C -9.3 °C 1022.9 hPa East 9.7 km/h 11.3 km/h 82% 0 mm 16 W/m2
07:16 -6.7 °C -9.3 °C 1022.9 hPa East 9.7 km/h 11.3 km/h 82% 0 mm 19 W/m2
07:21 -6.8 °C -9.3 °C 1022.9 hPa East 8 km/h 11.3 km/h 82% 0 mm 21 W/m2
07:26 -6.8 °C -9.3 °C 1022.6 hPa East 9.7 km/h 11.3 km/h 82% 0 mm 23 W/m2
07:31 -6.7 °C -9.3 °C 1022.6 hPa East 8 km/h 9.7 km/h 82% 0 mm 26 W/m2
07:36 -6.7 °C -9.1 °C 1022.6 hPa East 4.8 km/h 9.7 km/h 83% 0 mm 28 W/m2
07:41 -6.7 °C -9.1 °C 1022.6 hPa East 9.7 km/h 9.7 km/h 83% 0 mm 32 W/m2
07:46 -6.6 °C -9 °C 1022.6 hPa East 8 km/h 9.7 km/h 83% 0 mm 33 W/m2
07:51 -6.4 °C -8.8 °C 1022.9 hPa East 4.8 km/h 9.7 km/h 83% 0 mm 35 W/m2
07:56 -6.2 °C -8.4 °C 1022.9 hPa SE 3.2 km/h 8 km/h 84% 0 mm 39 W/m2
08:01 -6 °C -8.3 °C 1022.9 hPa SE 3.2 km/h 6.4 km/h 84% 0 mm 40 W/m2
08:06 -5.8 °C -8.1 °C 1022.9 hPa ESE 6.4 km/h 6.4 km/h 84% 0 mm 42 W/m2
08:11 -5.6 °C -7.9 °C 1022.9 hPa ESE 4.8 km/h 8 km/h 84% 0 mm 44 W/m2
08:16 -5.4 °C -7.7 °C 1022.9 hPa ESE 3.2 km/h 8 km/h 84% 0 mm 200 W/m2
08:21 -5.1 °C -7.3 °C 1022.9 hPa ESE 3.2 km/h 8 km/h 84% 0 mm 220 W/m2
08:26 -4.6 °C -7.1 °C 1022.9 hPa ESE 3.2 km/h 8 km/h 83% 0 mm 239 W/m2
08:31 -4.4 °C -7.2 °C 1022.9 hPa ESE 3.2 km/h 8 km/h 81% 0 mm 255 W/m2
08:36 -4.1 °C -6.9 °C 1022.9 hPa ESE 3.2 km/h 8 km/h 81% 0 mm 271 W/m2
08:41 -3.9 °C -6.9 °C 1022.9 hPa SE 6.4 km/h 11.3 km/h 80% 0 mm 283 W/m2
08:46 -3.7 °C -6.7 °C 1022.9 hPa ESE 8 km/h 12.9 km/h 80% 0 mm 294 W/m2
08:51 -3.4 °C -6.3 °C 1022.9 hPa ESE 11.3 km/h 14.5 km/h 80% 0 mm 283 W/m2
08:56 -3.2 °C -6.4 °C 1022.6 hPa SE 12.9 km/h 17.7 km/h 78% 0 mm 304 W/m2
09:01 -2.8 °C -6.1 °C 1022.6 hPa ESE 14.5 km/h 17.7 km/h 78% 0 mm 336 W/m2
09:06 -2.6 °C -6.1 °C 1022.6 hPa ESE 16.1 km/h 17.7 km/h 77% 0 mm 350 W/m2
09:11 -2.4 °C -6.1 °C 1022.6 hPa ESE 14.5 km/h 17.7 km/h 76% 0 mm 364 W/m2
09:16 -2.3 °C -5.9 °C 1022.2 hPa ESE 11.3 km/h 19.3 km/h 76% 0 mm 380 W/m2
09:21 -2.2 °C -5.8 °C 1022.2 hPa ESE 17.7 km/h 19.3 km/h 76% 0 mm 396 W/m2
09:26 -2 °C -5.8 °C 1022.2 hPa ESE 12.9 km/h 19.3 km/h 75% 0 mm 411 W/m2
09:31 -1.7 °C -5.5 °C 1022.2 hPa ESE 19.3 km/h 20.9 km/h 75% 0 mm 427 W/m2
09:36 -1.5 °C -5.3 °C 1022.2 hPa SE 16.1 km/h 20.9 km/h 75% 0 mm 441 W/m2
09:41 -1.4 °C -5.5 °C 1021.9 hPa SE 11.3 km/h 22.5 km/h 74% 0 mm 459 W/m2
09:46 -1.1 °C -5 °C 1021.9 hPa SE 8 km/h 22.5 km/h 75% 0 mm 471 W/m2
09:51 -1 °C -4.9 °C 1021.9 hPa SE 14.5 km/h 19.3 km/h 75% 0 mm 487 W/m2
09:56 -0.9 °C -4.9 °C 1021.9 hPa ESE 14.5 km/h 19.3 km/h 74% 0 mm 499 W/m2
10:01 -0.7 °C -4.6 °C 1021.9 hPa SE 17.7 km/h 22.5 km/h 75% 0 mm 515 W/m2
10:06 -0.5 °C -4.6 °C 1021.9 hPa ESE 12.9 km/h 22.5 km/h 74% 0 mm 529 W/m2
10:11 -0.4 °C -4.8 °C 1021.9 hPa SSE 12.9 km/h 19.3 km/h 72% 0 mm 543 W/m2
10:16 -0.2 °C -4.7 °C 1021.9 hPa SE 16.1 km/h 19.3 km/h 72% 0 mm 557 W/m2
10:21 -0.1 °C -4.5 °C 1021.9 hPa ESE 12.9 km/h 20.9 km/h 72% 0 mm 571 W/m2
10:26 0.4 °C -4.7 °C 1021.9 hPa SE 12.9 km/h 20.9 km/h 69% 0 mm 584 W/m2
10:31 0.7 °C -5.2 °C 1021.9 hPa SE 9.7 km/h 25.7 km/h 65% 0 mm 596 W/m2
10:36 0.8 °C -5.4 °C 1021.9 hPa SE 8 km/h 25.7 km/h 63% 0 mm 596 W/m2
10:41 0.9 °C -5.6 °C 1021.9 hPa SE 8 km/h 22.5 km/h 62% 0 mm 584 W/m2
10:46 1.1 °C -5.6 °C 1021.6 hPa SE 12.9 km/h 22.5 km/h 61% 0 mm 570 W/m2
10:51 1.3 °C -5.8 °C 1021.6 hPa SSE 16.1 km/h 22.5 km/h 59% 0 mm 550 W/m2
10:56 1.6 °C -6.1 °C 1021.6 hPa SSE 16.1 km/h 22.5 km/h 57% 0 mm 536 W/m2
11:01 1.6 °C -6.4 °C 1021.6 hPa ESE 25.7 km/h 25.7 km/h 55% 0 mm 534 W/m2
11:06 1.8 °C -6.5 °C 1021.6 hPa ESE 16.1 km/h 25.7 km/h 54% 0 mm 545 W/m2
11:11 2.1 °C -7 °C 1021.6 hPa East 25.7 km/h 25.7 km/h 51% 0 mm 571 W/m2
11:16 2 °C -7.3 °C 1021.2 hPa ESE 17.7 km/h 27.4 km/h 50% 0 mm 587 W/m2
11:21 2.2 °C -7.4 °C 1021.2 hPa SE 22.5 km/h 27.4 km/h 49% 0 mm 619 W/m2
11:26 2.5 °C -6.4 °C 1021.2 hPa SSE 19.3 km/h 27.4 km/h 52% 0 mm 675 W/m2
11:31 2.6 °C -6.8 °C 1021.2 hPa ESE 25.7 km/h 29 km/h 50% 0 mm 728 W/m2
11:36 2.3 °C -6.8 °C 1021.2 hPa ESE 16.1 km/h 29 km/h 51% 0 mm 742 W/m2
11:41 2.4 °C -7 °C 1021.2 hPa ESE 14.5 km/h 29 km/h 50% 0 mm 752 W/m2
11:46 2.7 °C -6.5 °C 1021.2 hPa ENE 17.7 km/h 27.4 km/h 51% 0 mm 761 W/m2
11:51 2.6 °C -5.8 °C 1021.2 hPa ESE 19.3 km/h 32.2 km/h 54% 0 mm 772 W/m2
11:56 2.6 °C -5.3 °C 1021.2 hPa ESE 14.5 km/h 32.2 km/h 56% 0 mm 779 W/m2
12:01 2.7 °C -5.2 °C 1021.2 hPa East 20.9 km/h 32.2 km/h 56% 0 mm 788 W/m2
12:06 2.8 °C -6.3 °C 1021.2 hPa ESE 12.9 km/h 32.2 km/h 51% 0 mm 796 W/m2
12:11 3 °C -5.4 °C 1020.9 hPa East 16.1 km/h 29 km/h 54% 0 mm 802 W/m2
12:16 3 °C -4.9 °C 1020.9 hPa East 22.5 km/h 27.4 km/h 56% 0 mm 810 W/m2
12:21 3 °C -5.7 °C 1020.9 hPa ESE 20.9 km/h 29 km/h 53% 0 mm 816 W/m2
12:26 2.9 °C -5.2 °C 1020.9 hPa East 24.1 km/h 29 km/h 55% 0 mm 823 W/m2
12:31 3.1 °C -5.1 °C 1020.9 hPa ESE 14.5 km/h 29 km/h 55% 0 mm 826 W/m2
12:36 3.4 °C -4.3 °C 1020.9 hPa East 22.5 km/h 29 km/h 57% 0 mm 833 W/m2
12:41 3.5 °C -4.4 °C 1020.9 hPa ESE 22.5 km/h 30.6 km/h 56% 0 mm 840 W/m2
12:46 3.4 °C -4.6 °C 1020.9 hPa East 14.5 km/h 30.6 km/h 56% 0 mm 842 W/m2
12:51 3.6 °C -4.2 °C 1020.5 hPa ESE 20.9 km/h 29 km/h 57% 0 mm 849 W/m2
12:56 3.4 °C -3.8 °C 1020.5 hPa ESE 20.9 km/h 30.6 km/h 59% 0 mm 854 W/m2
13:01 3.5 °C -3.3 °C 1020.5 hPa ESE 16.1 km/h 33.8 km/h 61% 0 mm 854 W/m2
13:06 3.6 °C -3.4 °C 1020.2 hPa ESE 24.1 km/h 33.8 km/h 60% 0 mm 860 W/m2
13:11 3.7 °C -3.1 °C 1020.2 hPa ESE 29 km/h 32.2 km/h 61% 0 mm 863 W/m2
13:16 3.7 °C -3.8 °C 1020.2 hPa ESE 24.1 km/h 33.8 km/h 58% 0 mm 865 W/m2
13:21 3.6 °C -4.4 °C 1020.2 hPa ESE 25.7 km/h 37 km/h 56% 0 mm 867 W/m2
13:26 3.7 °C -4.3 °C 1020.2 hPa East 22.5 km/h 37 km/h 56% 0 mm 867 W/m2
13:31 3.8 °C -4.4 °C 1020.2 hPa East 27.4 km/h 37 km/h 55% 0 mm 870 W/m2
13:36 3.9 °C -4.8 °C 1019.9 hPa ESE 25.7 km/h 37 km/h 53% 0 mm 868 W/m2
13:41 4.1 °C -4.7 °C 1019.9 hPa East 27.4 km/h 37 km/h 53% 0 mm 860 W/m2
13:46 4.2 °C -4.8 °C 1019.9 hPa East 22.5 km/h 41.8 km/h 52% 0 mm 877 W/m2
13:51 4.3 °C -4.7 °C 1019.9 hPa East 37 km/h 41.8 km/h 52% 0 mm 874 W/m2
13:56 4.1 °C -5.1 °C 1019.9 hPa East 33.8 km/h 38.6 km/h 51% 0 mm 868 W/m2
14:01 4.2 °C -5.1 °C 1019.9 hPa ESE 30.6 km/h 40.2 km/h 51% 0 mm 868 W/m2
14:06 4.1 °C -5.4 °C 1019.5 hPa East 27.4 km/h 43.5 km/h 50% 0 mm 847 W/m2
14:11 4.3 °C -5.7 °C 1019.5 hPa East 24.1 km/h 43.5 km/h 48% 0 mm 789 W/m2
14:16 4.5 °C -5.8 °C 1019.5 hPa ESE 19.3 km/h 43.5 km/h 47% 0 mm 884 W/m2
14:21 4.5 °C -5.6 °C 1019.5 hPa East 37 km/h 43.5 km/h 48% 0 mm 868 W/m2
14:26 4.5 °C -5.8 °C 1019.5 hPa East 24.1 km/h 41.8 km/h 47% 0 mm 870 W/m2
14:29 4.6 °C -6.1 °C 1019.5 hPa ESE 30.6 km/h 41.8 km/h 46% 0 mm 865 W/m2
14:34 4.7 °C -5.7 °C 1019.5 hPa ESE 27.4 km/h 40.2 km/h 47% 0 mm 812 W/m2
14:39 4.7 °C -6.2 °C 1019.2 hPa ESE 35.4 km/h 41.8 km/h 45% 0 mm 870 W/m2
14:44 4.5 °C -6.7 °C 1019.2 hPa ESE 30.6 km/h 41.8 km/h 44% 0 mm 858 W/m2
14:49 4.7 °C -6.5 °C 1019.2 hPa ESE 30.6 km/h 41.8 km/h 44% 0 mm 846 W/m2
14:54 4.8 °C -6.7 °C 1018.8 hPa ESE 19.3 km/h 38.6 km/h 43% 0 mm 840 W/m2
14:59 4.8 °C -6.4 °C 1018.8 hPa East 27.4 km/h 41.8 km/h 44% 0 mm 833 W/m2
15:04 4.8 °C -6.4 °C 1018.8 hPa ESE 33.8 km/h 41.8 km/h 44% 0 mm 828 W/m2
15:09 5.1 °C -5.9 °C 1018.8 hPa ESE 30.6 km/h 40.2 km/h 45% 0 mm 819 W/m2
15:14 5.1 °C -6.5 °C 1018.8 hPa ESE 24.1 km/h 40.2 km/h 43% 0 mm 812 W/m2
15:19 5.1 °C -6.2 °C 1018.8 hPa ESE 27.4 km/h 40.2 km/h 44% 0 mm 809 W/m2
15:24 5.1 °C -5.9 °C 1018.8 hPa ESE 25.7 km/h 40.2 km/h 45% 0 mm 800 W/m2
15:29 5.2 °C -6.1 °C 1018.5 hPa ESE 22.5 km/h 41.8 km/h 44% 0 mm 793 W/m2
15:34 5 °C -5.9 °C 1018.5 hPa ESE 29 km/h 41.8 km/h 45% 0 mm 786 W/m2
15:39 5 °C -5.7 °C 1018.5 hPa East 29 km/h 41.8 km/h 46% 0 mm 775 W/m2
15:44 4.9 °C -5.7 °C 1018.5 hPa ESE 27.4 km/h 43.5 km/h 46% 0 mm 768 W/m2
15:49 5.2 °C -5.2 °C 1018.2 hPa ESE 30.6 km/h 45.1 km/h 47% 0 mm 761 W/m2
15:54 5.1 °C -5.6 °C 1018.2 hPa ESE 25.7 km/h 45.1 km/h 46% 0 mm 751 W/m2
15:59 5.2 °C -4.9 °C 1018.2 hPa ESE 33.8 km/h 43.5 km/h 48% 0 mm 742 W/m2
16:04 5.2 °C -5.5 °C 1018.2 hPa ESE 17.7 km/h 40.2 km/h 46% 0 mm 733 W/m2
16:09 5.3 °C -5.4 °C 1017.8 hPa East 27.4 km/h 40.2 km/h 46% 0 mm 722 W/m2
16:14 5.3 °C -5.4 °C 1018.2 hPa East 24.1 km/h 43.5 km/h 46% 0 mm 710 W/m2
16:19 5.6 °C -4 °C 1017.8 hPa ESE 37 km/h 43.5 km/h 50% 0 mm 701 W/m2
16:24 5.5 °C -4.9 °C 1017.8 hPa East 29 km/h 43.5 km/h 47% 0 mm 691 W/m2
16:29 5.6 °C -4.1 °C 1017.8 hPa East 29 km/h 43.5 km/h 50% 0 mm 680 W/m2
16:34 5.4 °C -4.4 °C 1017.5 hPa East 32.2 km/h 41.8 km/h 49% 0 mm 668 W/m2
16:39 5.5 °C -4.7 °C 1017.5 hPa ESE 27.4 km/h 41.8 km/h 48% 0 mm 656 W/m2
16:44 5.4 °C -4.2 °C 1017.5 hPa ESE 30.6 km/h 40.2 km/h 50% 0 mm 643 W/m2
16:49 5.6 °C -4.1 °C 1017.2 hPa East 30.6 km/h 40.2 km/h 50% 0 mm 629 W/m2
16:54 5.3 °C -4.3 °C 1016.8 hPa ESE 22.5 km/h 41.8 km/h 50% 0 mm 621 W/m2
16:59 5.3 °C -4.3 °C 1016.8 hPa ESE 20.9 km/h 41.8 km/h 50% 0 mm 606 W/m2
17:04 5.3 °C -4 °C 1016.8 hPa ESE 17.7 km/h 43.5 km/h 51% 0 mm 592 W/m2
17:09 5.3 °C -4.6 °C 1016.8 hPa East 30.6 km/h 48.3 km/h 49% 0 mm 578 W/m2
17:14 5.3 °C -4.3 °C 1016.8 hPa East 27.4 km/h 48.3 km/h 50% 0 mm 566 W/m2
17:19 5.4 °C -4.2 °C 1016.5 hPa ESE 20.9 km/h 43.5 km/h 50% 0 mm 550 W/m2
17:24 5.5 °C -4.4 °C 1016.5 hPa SE 29 km/h 45.1 km/h 49% 0 mm 536 W/m2
17:29 5.4 °C -4.2 °C 1016.5 hPa East 29 km/h 45.1 km/h 50% 0 mm 524 W/m2
17:34 5.4 °C -4.5 °C 1016.5 hPa East 27.4 km/h 43.5 km/h 49% 0 mm 510 W/m2
17:39 5.5 °C -4.4 °C 1016.5 hPa East 29 km/h 43.5 km/h 49% 0 mm 494 W/m2
17:44 5.4 °C -4.2 °C 1016.5 hPa SE 22.5 km/h 40.2 km/h 50% 0 mm 482 W/m2
17:49 5.3 °C -4.6 °C 1016.5 hPa ESE 33.8 km/h 40.2 km/h 49% 0 mm 464 W/m2
17:54 5.3 °C -4.3 °C 1016.5 hPa East 37 km/h 43.5 km/h 50% 0 mm 448 W/m2
17:59 5.3 °C -4.6 °C 1016.5 hPa ESE 24.1 km/h 43.5 km/h 49% 0 mm 432 W/m2
18:04 5.3 °C -4.6 °C 1016.5 hPa ESE 27.4 km/h 45.1 km/h 49% 0 mm 418 W/m2
18:09 5.3 °C -4.3 °C 1016.5 hPa ESE 24.1 km/h 45.1 km/h 50% 0 mm 404 W/m2
18:14 5.2 °C -4.1 °C 1016.5 hPa ESE 25.7 km/h 40.2 km/h 51% 0 mm 387 W/m2
18:19 5 °C -3.6 °C 1016.5 hPa ESE 32.2 km/h 41.8 km/h 54% 0 mm 371 W/m2
18:24 5 °C -3.6 °C 1016.5 hPa ENE 17.7 km/h 41.8 km/h 54% 0 mm 355 W/m2
18:29 4.8 °C -3.4 °C 1016.1 hPa ESE 29 km/h 41.8 km/h 55% 0 mm 338 W/m2
18:34 4.8 °C -3.3 °C 1016.5 hPa ESE 20.9 km/h 41.8 km/h 56% 0 mm 322 W/m2
18:39 4.7 °C -3.1 °C 1016.1 hPa East 38.6 km/h 40.2 km/h 57% 0 mm 306 W/m2
18:44 4.7 °C -3.1 °C 1016.1 hPa East 29 km/h 41.8 km/h 57% 0 mm 288 W/m2
18:49 4.4 °C -3.6 °C 1016.1 hPa ESE 27.4 km/h 41.8 km/h 56% 0 mm 271 W/m2
18:54 4.3 °C -3.5 °C 1016.1 hPa East 20.9 km/h 43.5 km/h 57% 0 mm 251 W/m2
18:59 4.2 °C -3.8 °C 1016.1 hPa ESE 24.1 km/h 43.5 km/h 56% 0 mm 230 W/m2
19:04 4.1 °C -3.9 °C 1016.1 hPa East 20.9 km/h 37 km/h 56% 0 mm 211 W/m2
19:09 4 °C -4.2 °C 1016.1 hPa ESE 22.5 km/h 43.5 km/h 55% 0 mm 190 W/m2
19:14 3.8 °C -4.6 °C 1015.8 hPa ESE 35.4 km/h 43.5 km/h 54% 0 mm 174 W/m2
19:19 3.6 °C -5.2 °C 1015.8 hPa ESE 20.9 km/h 45.1 km/h 53% 0 mm 153 W/m2
19:24 3.4 °C -5.3 °C 1015.8 hPa ESE 27.4 km/h 45.1 km/h 53% 0 mm 135 W/m2
19:29 3.3 °C -5.4 °C 1015.8 hPa East 30.6 km/h 45.1 km/h 53% 0 mm 118 W/m2
19:34 3.2 °C -5.2 °C 1015.5 hPa East 20.9 km/h 45.1 km/h 54% 0 mm 100 W/m2
19:39 3.1 °C -5.4 °C 1015.5 hPa East 22.5 km/h 38.6 km/h 54% 0 mm 84 W/m2
19:44 2.9 °C -5.8 °C 1015.5 hPa ESE 17.7 km/h 38.6 km/h 53% 0 mm 70 W/m2
19:49 2.8 °C -5.9 °C 1015.5 hPa ESE 20.9 km/h 38.6 km/h 53% 0 mm 60 W/m2
19:54 2.6 °C -5.8 °C 1015.5 hPa ESE 20.9 km/h 40.2 km/h 54% 0 mm 49 W/m2
19:59 2.4 °C -5.9 °C 1015.5 hPa East 17.7 km/h 40.2 km/h 54% 0 mm 39 W/m2
20:04 2.3 °C -5.8 °C 1015.5 hPa East 24.1 km/h 38.6 km/h 55% 0 mm 30 W/m2
20:09 2.1 °C -5.8 °C 1015.8 hPa ESE 16.1 km/h 33.8 km/h 56% 0 mm 25 W/m2
20:14 1.9 °C -5.9 °C 1015.8 hPa ESE 17.7 km/h 33.8 km/h 56% 0 mm 19 W/m2
20:19 1.7 °C -6.1 °C 1015.8 hPa East 25.7 km/h 33.8 km/h 56% 0 mm 16 W/m2
20:24 1.6 °C -5.8 °C 1015.8 hPa ENE 25.7 km/h 32.2 km/h 58% 0 mm 12 W/m2
20:29 1.4 °C -5.7 °C 1015.8 hPa ESE 20.9 km/h 32.2 km/h 59% 0 mm 9 W/m2
20:34 1.3 °C -5.4 °C 1016.1 hPa East 16.1 km/h 32.2 km/h 61% 0 mm 5 W/m2
20:39 1.1 °C -5.4 °C 1016.1 hPa ESE 22.5 km/h 32.2 km/h 62% 0 mm 0 W/m2
20:44 1 °C -5.1 °C 1016.1 hPa East 16.1 km/h 30.6 km/h 64% 0 mm 0 W/m2
20:49 0.8 °C -5.1 °C 1016.1 hPa East 20.9 km/h 29 km/h 65% 0 mm 0 W/m2
20:54 0.6 °C -5 °C 1016.1 hPa ESE 19.3 km/h 29 km/h 66% 0 mm 0 W/m2
20:59 0.4 °C -5.2 °C 1016.1 hPa ENE 17.7 km/h 29 km/h 66% 0 mm 0 W/m2
21:04 0.3 °C -4.9 °C 1015.8 hPa ESE 19.3 km/h 29 km/h 68% 0 mm 0 W/m2
21:09 0.1 °C -4.9 °C 1015.8 hPa East 22.5 km/h 29 km/h 69% 0 mm 0 W/m2
21:14 0.1 °C -4.9 °C 1016.1 hPa East 20.9 km/h 33.8 km/h 69% 0 mm 0 W/m2
21:19 -0.1 °C -4.9 °C 1016.1 hPa ESE 20.9 km/h 33.8 km/h 70% 0 mm 0 W/m2
21:24 -0.2 °C -4.8 °C 1016.5 hPa ESE 19.3 km/h 30.6 km/h 71% 0 mm 0 W/m2
21:29 -0.2 °C -4.8 °C 1016.5 hPa East 22.5 km/h 30.6 km/h 71% 0 mm 0 W/m2
21:34 -0.3 °C -4.9 °C 1016.5 hPa ESE 17.7 km/h 29 km/h 71% 0 mm 0 W/m2
21:39 -0.4 °C -4.8 °C 1016.5 hPa East 24.1 km/h 32.2 km/h 72% 0 mm 0 W/m2
21:44 -0.4 °C -4.9 °C 1016.5 hPa East 22.5 km/h 35.4 km/h 72% 0 mm 0 W/m2
21:49 -0.4 °C -4.9 °C 1016.5 hPa East 22.5 km/h 38.6 km/h 72% 0 mm 0 W/m2
21:54 -0.6 °C -5 °C 1016.5 hPa East 27.4 km/h 38.6 km/h 72% 0 mm 0 W/m2
21:59 -0.6 °C -5.1 °C 1016.5 hPa East 20.9 km/h 37 km/h 72% 0 mm 0 W/m2
22:04 -0.6 °C -4.8 °C 1016.5 hPa East 24.1 km/h 37 km/h 73% 0 mm 0 W/m2
22:09 -0.7 °C -4.9 °C 1016.8 hPa ENE 22.5 km/h 37 km/h 73% 0 mm 0 W/m2
22:14 -0.7 °C -4.9 °C 1016.8 hPa ESE 25.7 km/h 38.6 km/h 73% 0 mm 0 W/m2
22:19 -0.7 °C -4.8 °C 1016.8 hPa East 24.1 km/h 38.6 km/h 74% 0 mm 0 W/m2
22:24 -0.8 °C -4.8 °C 1016.8 hPa East 29 km/h 38.6 km/h 74% 0 mm 0 W/m2
22:29 -0.8 °C -4.8 °C 1016.8 hPa East 25.7 km/h 38.6 km/h 74% 0 mm 0 W/m2
22:34 -0.7 °C -4.8 °C 1016.8 hPa East 30.6 km/h 38.6 km/h 74% 0 mm 0 W/m2
22:39 -0.7 °C -4.8 °C 1016.8 hPa East 27.4 km/h 38.6 km/h 74% 0 mm 0 W/m2
22:44 -0.7 °C -4.8 °C 1016.8 hPa ENE 27.4 km/h 40.2 km/h 74% 0 mm 0 W/m2
22:49 -0.7 °C -4.8 °C 1016.5 hPa East 29 km/h 40.2 km/h 74% 0 mm 0 W/m2
22:54 -0.7 °C -4.8 °C 1016.5 hPa East 24.1 km/h 45.1 km/h 74% 0 mm 0 W/m2
22:59 -0.9 °C -4.9 °C 1016.5 hPa East 29 km/h 45.1 km/h 74% 0 mm 0 W/m2
23:04 -0.9 °C -5 °C 1016.5 hPa ESE 19.3 km/h 43.5 km/h 74% 0 mm 0 W/m2
23:09 -1 °C -5.1 °C 1016.5 hPa ESE 32.2 km/h 45.1 km/h 74% 0 mm 0 W/m2
23:14 -1.1 °C -5.1 °C 1016.5 hPa East 25.7 km/h 46.7 km/h 74% 0 mm 0 W/m2
23:19 -1.1 °C -5.2 °C 1016.5 hPa East 30.6 km/h 46.7 km/h 74% 0 mm 0 W/m2
23:24 -1.1 °C -5.2 °C 1016.5 hPa East 30.6 km/h 40.2 km/h 74% 0 mm 0 W/m2
23:29 -1.2 °C -5.1 °C 1016.5 hPa East 20.9 km/h 40.2 km/h 75% 0 mm 0 W/m2
23:34 -1.2 °C -5.1 °C 1016.5 hPa East 24.1 km/h 40.2 km/h 75% 0 mm 0 W/m2
23:39 -1.2 °C -5.1 °C 1016.5 hPa East 29 km/h 40.2 km/h 75% 0 mm 0 W/m2
23:44 -1.3 °C -4.9 °C 1016.1 hPa East 29 km/h 37 km/h 76% 0 mm 0 W/m2
23:49 -1.3 °C -4.9 °C 1016.1 hPa East 29 km/h 40.2 km/h 76% 0 mm 0 W/m2
23:54 -1.3 °C -4.9 °C 1016.1 hPa East 24.1 km/h 40.2 km/h 76% 0 mm 0 W/m2
23:59 -1.3 °C -4.9 °C 1015.8 hPa ESE 24.1 km/h 41.8 km/h 76% 0 mm 0 W/m2
Bismarck, North Dakota, USA
Compliments of Weather Underground - 4 mb